sensor_id;sensor_type;location;lat;lon;timestamp;temperature;humidity
43679;DHT22;29279;50.858;4.392;2022-10-23T00:02:04;16.90;99.90
43679;DHT22;29279;50.858;4.392;2022-10-23T00:04:30;16.80;99.90
43679;DHT22;29279;50.858;4.392;2022-10-23T00:06:56;16.80;99.90
43679;DHT22;29279;50.858;4.392;2022-10-23T00:09:23;16.90;99.90
43679;DHT22;29279;50.858;4.392;2022-10-23T00:11:49;16.80;99.90
43679;DHT22;29279;50.858;4.392;2022-10-23T00:14:20;16.90;99.90
43679;DHT22;29279;50.858;4.392;2022-10-23T00:16:47;16.80;99.90
43679;DHT22;29279;50.858;4.392;2022-10-23T00:19:12;16.90;99.90
43679;DHT22;29279;50.858;4.392;2022-10-23T00:21:38;16.80;99.90
43679;DHT22;29279;50.858;4.392;2022-10-23T00:24:04;16.90;99.90
43679;DHT22;29279;50.858;4.392;2022-10-23T00:26:30;17.00;99.90
43679;DHT22;29279;50.858;4.392;2022-10-23T00:28:56;17.00;99.90
43679;DHT22;29279;50.858;4.392;2022-10-23T00:31:23;17.00;99.90
43679;DHT22;29279;50.858;4.392;2022-10-23T00:33:50;17.10;99.90
43679;DHT22;29279;50.858;4.392;2022-10-23T00:36:17;17.00;99.90
43679;DHT22;29279;50.858;4.392;2022-10-23T00:38:44;17.00;99.90
43679;DHT22;29279;50.858;4.392;2022-10-23T00:41:24;16.90;99.90
43679;DHT22;29279;50.858;4.392;2022-10-23T00:46:26;16.90;99.90
43679;DHT22;29279;50.858;4.392;2022-10-23T00:48:52;16.90;99.90
43679;DHT22;29279;50.858;4.392;2022-10-23T00:51:18;16.90;99.90
43679;DHT22;29279;50.858;4.392;2022-10-23T00:53:44;16.80;99.90
43679;DHT22;29279;50.858;4.392;2022-10-23T00:56:11;16.80;99.90
43679;DHT22;29279;50.858;4.392;2022-10-23T00:58:37;16.70;99.90
43679;DHT22;29279;50.858;4.392;2022-10-23T01:01:16;16.70;99.90
43679;DHT22;29279;50.858;4.392;2022-10-23T01:03:43;16.70;99.90
43679;DHT22;29279;50.858;4.392;2022-10-23T01:09:15;16.70;99.90
43679;DHT22;29279;50.858;4.392;2022-10-23T01:14:51;16.60;99.90
43679;DHT22;29279;50.858;4.392;2022-10-23T01:28:14;16.60;99.90
43679;DHT22;29279;50.858;4.392;2022-10-23T01:30:42;16.50;99.90
43679;DHT22;29279;50.858;4.392;2022-10-23T01:33:24;16.50;99.90
43679;DHT22;29279;50.858;4.392;2022-10-23T01:35:59;16.50;99.90
43679;DHT22;29279;50.858;4.392;2022-10-23T01:38:45;16.50;99.90
43679;DHT22;29279;50.858;4.392;2022-10-23T01:41:29;16.60;99.90
43679;DHT22;29279;50.858;4.392;2022-10-23T01:46:27;16.60;99.90
43679;DHT22;29279;50.858;4.392;2022-10-23T01:48:55;16.50;99.90
43679;DHT22;29279;50.858;4.392;2022-10-23T01:51:24;16.50;99.90
43679;DHT22;29279;50.858;4.392;2022-10-23T01:53:55;16.50;99.90
43679;DHT22;29279;50.858;4.392;2022-10-23T01:56:27;16.50;99.90
43679;DHT22;29279;50.858;4.392;2022-10-23T01:58:57;16.50;99.90
43679;DHT22;29279;50.858;4.392;2022-10-23T02:01:28;16.50;99.90
43679;DHT22;29279;50.858;4.392;2022-10-23T02:03:55;16.50;99.90
43679;DHT22;29279;50.858;4.392;2022-10-23T02:06:22;16.50;99.90
43679;DHT22;29279;50.858;4.392;2022-10-23T02:08:48;16.50;99.90
43679;DHT22;29279;50.858;4.392;2022-10-23T02:11:16;16.40;99.90
43679;DHT22;29279;50.858;4.392;2022-10-23T02:14:06;16.40;99.90
43679;DHT22;29279;50.858;4.392;2022-10-23T02:16:48;16.40;99.90
43679;DHT22;29279;50.858;4.392;2022-10-23T02:22:11;16.40;99.90
43679;DHT22;29279;50.858;4.392;2022-10-23T02:24:53;16.50;99.90
43679;DHT22;29279;50.858;4.392;2022-10-23T02:27:47;16.40;99.90
43679;DHT22;29279;50.858;4.392;2022-10-23T02:30:17;16.50;99.90
43679;DHT22;29279;50.858;4.392;2022-10-23T02:32:49;16.50;99.90
43679;DHT22;29279;50.858;4.392;2022-10-23T02:35:17;16.50;99.90
43679;DHT22;29279;50.858;4.392;2022-10-23T02:37:50;16.50;99.90
43679;DHT22;29279;50.858;4.392;2022-10-23T02:40:16;16.50;99.90
43679;DHT22;29279;50.858;4.392;2022-10-23T02:42:47;16.40;99.90
43679;DHT22;29279;50.858;4.392;2022-10-23T02:48:09;16.50;99.90
43679;DHT22;29279;50.858;4.392;2022-10-23T02:50:51;16.70;99.90
43679;DHT22;29279;50.858;4.392;2022-10-23T02:56:29;16.60;99.90
43679;DHT22;29279;50.858;4.392;2022-10-23T02:58:59;16.60;99.90
43679;DHT22;29279;50.858;4.392;2022-10-23T03:01:39;16.60;99.90
43679;DHT22;29279;50.858;4.392;2022-10-23T03:04:09;16.60;99.90
43679;DHT22;29279;50.858;4.392;2022-10-23T03:06:36;16.60;99.90
43679;DHT22;29279;50.858;4.392;2022-10-23T03:09:07;16.70;99.90
43679;DHT22;29279;50.858;4.392;2022-10-23T03:11:32;16.70;99.90
43679;DHT22;29279;50.858;4.392;2022-10-23T03:13:58;16.70;99.90
43679;DHT22;29279;50.858;4.392;2022-10-23T03:16:24;16.70;99.90
43679;DHT22;29279;50.858;4.392;2022-10-23T03:18:49;16.60;99.90
43679;DHT22;29279;50.858;4.392;2022-10-23T03:21:15;16.60;99.90
43679;DHT22;29279;50.858;4.392;2022-10-23T03:23:41;16.60;99.90
43679;DHT22;29279;50.858;4.392;2022-10-23T03:26:07;16.70;99.90
43679;DHT22;29279;50.858;4.392;2022-10-23T03:28:33;16.60;99.90
43679;DHT22;29279;50.858;4.392;2022-10-23T03:31:00;16.60;99.90
43679;DHT22;29279;50.858;4.392;2022-10-23T03:33:30;16.60;99.90
43679;DHT22;29279;50.858;4.392;2022-10-23T03:35:56;16.50;99.90
43679;DHT22;29279;50.858;4.392;2022-10-23T03:38:21;16.50;99.90
43679;DHT22;29279;50.858;4.392;2022-10-23T03:40:47;16.60;99.90
43679;DHT22;29279;50.858;4.392;2022-10-23T03:43:13;16.60;99.90
43679;DHT22;29279;50.858;4.392;2022-10-23T03:45:39;16.60;99.90
43679;DHT22;29279;50.858;4.392;2022-10-23T03:48:05;16.50;99.90
43679;DHT22;29279;50.858;4.392;2022-10-23T03:50:31;16.50;99.90
43679;DHT22;29279;50.858;4.392;2022-10-23T03:52:56;16.50;99.90
43679;DHT22;29279;50.858;4.392;2022-10-23T03:55:22;16.50;99.90
43679;DHT22;29279;50.858;4.392;2022-10-23T03:57:50;16.50;99.90
43679;DHT22;29279;50.858;4.392;2022-10-23T04:00:15;16.50;99.90
43679;DHT22;29279;50.858;4.392;2022-10-23T04:02:41;16.50;99.90
43679;DHT22;29279;50.858;4.392;2022-10-23T04:05:07;16.50;99.90
43679;DHT22;29279;50.858;4.392;2022-10-23T04:07:33;16.50;99.90
43679;DHT22;29279;50.858;4.392;2022-10-23T04:09:58;16.50;99.90
43679;DHT22;29279;50.858;4.392;2022-10-23T04:12:24;16.50;99.90
43679;DHT22;29279;50.858;4.392;2022-10-23T04:14:49;16.60;99.90
43679;DHT22;29279;50.858;4.392;2022-10-23T04:17:15;16.50;99.90
43679;DHT22;29279;50.858;4.392;2022-10-23T04:19:41;16.50;99.90
43679;DHT22;29279;50.858;4.392;2022-10-23T04:22:07;16.50;99.90
43679;DHT22;29279;50.858;4.392;2022-10-23T04:24:32;16.50;99.90
43679;DHT22;29279;50.858;4.392;2022-10-23T04:26:58;16.50;99.90
43679;DHT22;29279;50.858;4.392;2022-10-23T04:29:24;16.50;99.90
43679;DHT22;29279;50.858;4.392;2022-10-23T04:31:50;16.60;99.90
43679;DHT22;29279;50.858;4.392;2022-10-23T04:34:17;16.50;99.90
43679;DHT22;29279;50.858;4.392;2022-10-23T04:36:42;16.50;99.90
43679;DHT22;29279;50.858;4.392;2022-10-23T04:39:09;16.50;99.90
43679;DHT22;29279;50.858;4.392;2022-10-23T04:41:34;16.60;99.90
43679;DHT22;29279;50.858;4.392;2022-10-23T04:44:01;16.60;99.90
43679;DHT22;29279;50.858;4.392;2022-10-23T04:46:26;16.60;99.90
43679;DHT22;29279;50.858;4.392;2022-10-23T04:48:52;16.60;99.90
43679;DHT22;29279;50.858;4.392;2022-10-23T04:51:18;16.60;99.90
43679;DHT22;29279;50.858;4.392;2022-10-23T04:53:43;16.60;99.90
43679;DHT22;29279;50.858;4.392;2022-10-23T04:56:14;16.60;99.90
43679;DHT22;29279;50.858;4.392;2022-10-23T04:58:40;16.70;99.90
43679;DHT22;29279;50.858;4.392;2022-10-23T05:01:07;16.70;99.90
43679;DHT22;29279;50.858;4.392;2022-10-23T05:03:35;16.70;99.90
43679;DHT22;29279;50.858;4.392;2022-10-23T05:06:01;16.60;99.90
43679;DHT22;29279;50.858;4.392;2022-10-23T05:08:28;16.70;99.90
43679;DHT22;29279;50.858;4.392;2022-10-23T05:10:54;16.70;99.90
43679;DHT22;29279;50.858;4.392;2022-10-23T05:13:20;16.70;99.90
43679;DHT22;29279;50.858;4.392;2022-10-23T05:15:50;16.70;99.90
43679;DHT22;29279;50.858;4.392;2022-10-23T05:18:26;16.70;99.90
43679;DHT22;29279;50.858;4.392;2022-10-23T05:21:01;16.70;99.90
43679;DHT22;29279;50.858;4.392;2022-10-23T05:23:31;16.70;99.90
43679;DHT22;29279;50.858;4.392;2022-10-23T05:25:57;16.70;99.90
43679;DHT22;29279;50.858;4.392;2022-10-23T05:28:23;16.70;99.90
43679;DHT22;29279;50.858;4.392;2022-10-23T05:30:49;16.70;99.90
43679;DHT22;29279;50.858;4.392;2022-10-23T05:33:15;16.70;99.90
43679;DHT22;29279;50.858;4.392;2022-10-23T05:35:41;16.80;99.90
43679;DHT22;29279;50.858;4.392;2022-10-23T05:38:08;16.80;99.90
43679;DHT22;29279;50.858;4.392;2022-10-23T05:40:34;16.90;99.90
43679;DHT22;29279;50.858;4.392;2022-10-23T05:43:00;16.80;99.90
43679;DHT22;29279;50.858;4.392;2022-10-23T05:45:26;16.90;99.90
43679;DHT22;29279;50.858;4.392;2022-10-23T05:47:51;16.90;99.90
43679;DHT22;29279;50.858;4.392;2022-10-23T05:50:18;16.90;99.90
43679;DHT22;29279;50.858;4.392;2022-10-23T05:52:47;16.80;99.90
43679;DHT22;29279;50.858;4.392;2022-10-23T05:55:14;16.70;99.90
43679;DHT22;29279;50.858;4.392;2022-10-23T05:57:39;16.80;99.90
43679;DHT22;29279;50.858;4.392;2022-10-23T06:00:05;16.70;99.90
43679;DHT22;29279;50.858;4.392;2022-10-23T06:02:32;16.70;99.90
43679;DHT22;29279;50.858;4.392;2022-10-23T06:04:57;16.70;99.90
43679;DHT22;29279;50.858;4.392;2022-10-23T06:07:24;16.70;99.90
43679;DHT22;29279;50.858;4.392;2022-10-23T06:09:50;16.60;99.90
43679;DHT22;29279;50.858;4.392;2022-10-23T06:12:17;16.70;99.90
43679;DHT22;29279;50.858;4.392;2022-10-23T06:14:43;16.70;99.90
43679;DHT22;29279;50.858;4.392;2022-10-23T06:17:09;16.70;99.90
43679;DHT22;29279;50.858;4.392;2022-10-23T06:19:34;16.70;99.90
43679;DHT22;29279;50.858;4.392;2022-10-23T06:22:00;16.70;99.90
43679;DHT22;29279;50.858;4.392;2022-10-23T06:24:25;16.70;99.90
43679;DHT22;29279;50.858;4.392;2022-10-23T06:26:51;16.70;99.90
43679;DHT22;29279;50.858;4.392;2022-10-23T06:29:17;16.70;99.90
43679;DHT22;29279;50.858;4.392;2022-10-23T06:31:42;16.80;99.90
43679;DHT22;29279;50.858;4.392;2022-10-23T06:34:10;16.70;99.90
43679;DHT22;29279;50.858;4.392;2022-10-23T06:36:36;16.70;99.90
43679;DHT22;29279;50.858;4.392;2022-10-23T06:39:03;16.70;99.90
43679;DHT22;29279;50.858;4.392;2022-10-23T06:41:29;16.80;99.90
43679;DHT22;29279;50.858;4.392;2022-10-23T06:43:55;16.80;99.90
43679;DHT22;29279;50.858;4.392;2022-10-23T06:46:21;16.80;99.90
43679;DHT22;29279;50.858;4.392;2022-10-23T06:48:47;16.80;99.90
43679;DHT22;29279;50.858;4.392;2022-10-23T06:51:14;16.90;99.90
43679;DHT22;29279;50.858;4.392;2022-10-23T06:53:42;16.90;99.90
43679;DHT22;29279;50.858;4.392;2022-10-23T06:56:08;16.90;99.90
43679;DHT22;29279;50.858;4.392;2022-10-23T06:58:36;17.00;99.90
43679;DHT22;29279;50.858;4.392;2022-10-23T07:01:05;17.00;99.90
43679;DHT22;29279;50.858;4.392;2022-10-23T07:03:31;17.10;99.90
43679;DHT22;29279;50.858;4.392;2022-10-23T07:06:01;17.10;99.90
43679;DHT22;29279;50.858;4.392;2022-10-23T07:08:27;17.10;99.90
43679;DHT22;29279;50.858;4.392;2022-10-23T07:10:53;17.10;99.90
43679;DHT22;29279;50.858;4.392;2022-10-23T07:13:19;17.10;99.90
43679;DHT22;29279;50.858;4.392;2022-10-23T07:15:44;17.20;99.90
43679;DHT22;29279;50.858;4.392;2022-10-23T07:18:10;17.30;99.90
43679;DHT22;29279;50.858;4.392;2022-10-23T07:20:41;17.30;99.90
43679;DHT22;29279;50.858;4.392;2022-10-23T07:23:07;17.30;99.90
43679;DHT22;29279;50.858;4.392;2022-10-23T07:25:33;17.30;99.90
43679;DHT22;29279;50.858;4.392;2022-10-23T07:27:59;17.30;99.90
43679;DHT22;29279;50.858;4.392;2022-10-23T07:30:25;17.30;99.90
43679;DHT22;29279;50.858;4.392;2022-10-23T07:32:50;17.40;99.90
43679;DHT22;29279;50.858;4.392;2022-10-23T07:35:16;17.50;99.90
43679;DHT22;29279;50.858;4.392;2022-10-23T07:37:42;17.40;99.90
43679;DHT22;29279;50.858;4.392;2022-10-23T07:40:09;17.40;99.90
43679;DHT22;29279;50.858;4.392;2022-10-23T07:42:35;17.40;99.90
43679;DHT22;29279;50.858;4.392;2022-10-23T07:45:01;17.50;99.90
43679;DHT22;29279;50.858;4.392;2022-10-23T07:47:28;17.60;99.90
43679;DHT22;29279;50.858;4.392;2022-10-23T07:49:54;17.60;99.90
43679;DHT22;29279;50.858;4.392;2022-10-23T07:52:20;17.60;99.90
43679;DHT22;29279;50.858;4.392;2022-10-23T07:54:45;17.60;99.90
43679;DHT22;29279;50.858;4.392;2022-10-23T07:57:14;17.60;99.90
43679;DHT22;29279;50.858;4.392;2022-10-23T07:59:40;17.70;99.90
43679;DHT22;29279;50.858;4.392;2022-10-23T08:02:13;17.60;99.90
43679;DHT22;29279;50.858;4.392;2022-10-23T08:04:39;17.70;99.90
43679;DHT22;29279;50.858;4.392;2022-10-23T08:07:05;17.80;99.90
43679;DHT22;29279;50.858;4.392;2022-10-23T08:09:31;17.80;99.90
43679;DHT22;29279;50.858;4.392;2022-10-23T08:11:59;17.90;99.90
43679;DHT22;29279;50.858;4.392;2022-10-23T08:14:25;17.80;99.90
43679;DHT22;29279;50.858;4.392;2022-10-23T08:16:51;17.80;99.90
43679;DHT22;29279;50.858;4.392;2022-10-23T08:19:16;17.80;99.90
43679;DHT22;29279;50.858;4.392;2022-10-23T08:21:42;17.80;99.90
43679;DHT22;29279;50.858;4.392;2022-10-23T08:24:10;17.80;99.90
43679;DHT22;29279;50.858;4.392;2022-10-23T08:26:38;17.80;99.90
43679;DHT22;29279;50.858;4.392;2022-10-23T08:29:04;17.70;99.90
43679;DHT22;29279;50.858;4.392;2022-10-23T08:31:30;17.60;99.90
43679;DHT22;29279;50.858;4.392;2022-10-23T08:33:56;17.60;99.90
43679;DHT22;29279;50.858;4.392;2022-10-23T08:36:26;17.70;99.90
43679;DHT22;29279;50.858;4.392;2022-10-23T08:38:54;17.60;99.90
43679;DHT22;29279;50.858;4.392;2022-10-23T08:41:28;17.60;99.90
43679;DHT22;29279;50.858;4.392;2022-10-23T08:44:18;17.60;99.90
43679;DHT22;29279;50.858;4.392;2022-10-23T08:47:01;17.90;99.90
43679;DHT22;29279;50.858;4.392;2022-10-23T08:49:51;17.80;99.90
43679;DHT22;29279;50.858;4.392;2022-10-23T08:52:27;17.80;99.90
43679;DHT22;29279;50.858;4.392;2022-10-23T08:55:16;17.80;99.90
43679;DHT22;29279;50.858;4.392;2022-10-23T09:00:43;18.00;99.90
43679;DHT22;29279;50.858;4.392;2022-10-23T09:03:12;17.90;99.90
43679;DHT22;29279;50.858;4.392;2022-10-23T09:19:22;17.80;99.90
43679;DHT22;29279;50.858;4.392;2022-10-23T09:21:52;17.90;99.90
43679;DHT22;29279;50.858;4.392;2022-10-23T09:24:21;17.90;99.90
43679;DHT22;29279;50.858;4.392;2022-10-23T09:26:49;17.90;99.90
43679;DHT22;29279;50.858;4.392;2022-10-23T09:31:52;17.80;99.90
43679;DHT22;29279;50.858;4.392;2022-10-23T09:34:21;17.80;99.90
43679;DHT22;29279;50.858;4.392;2022-10-23T09:36:53;17.90;99.90
43679;DHT22;29279;50.858;4.392;2022-10-23T09:39:25;18.10;99.90
43679;DHT22;29279;50.858;4.392;2022-10-23T09:41:52;18.10;99.90
43679;DHT22;29279;50.858;4.392;2022-10-23T09:44:25;18.10;99.90
43679;DHT22;29279;50.858;4.392;2022-10-23T09:46:59;18.30;99.90
43679;DHT22;29279;50.858;4.392;2022-10-23T09:49:29;18.30;99.90
43679;DHT22;29279;50.858;4.392;2022-10-23T09:54:58;18.50;99.90
43679;DHT22;29279;50.858;4.392;2022-10-23T10:00:05;18.60;99.90
43679;DHT22;29279;50.858;4.392;2022-10-23T10:02:33;18.60;99.90
43679;DHT22;29279;50.858;4.392;2022-10-23T10:05:31;18.50;99.90
43679;DHT22;29279;50.858;4.392;2022-10-23T10:10:51;18.60;99.90
43679;DHT22;29279;50.858;4.392;2022-10-23T10:16:15;18.80;99.90
43679;DHT22;29279;50.858;4.392;2022-10-23T10:18:53;18.80;99.90
43679;DHT22;29279;50.858;4.392;2022-10-23T10:21:44;18.80;99.90
43679;DHT22;29279;50.858;4.392;2022-10-23T10:24:21;18.80;99.90
43679;DHT22;29279;50.858;4.392;2022-10-23T10:30:09;19.00;99.90
43679;DHT22;29279;50.858;4.392;2022-10-23T10:35:40;19.30;99.90
43679;DHT22;29279;50.858;4.392;2022-10-23T10:38:34;19.20;99.90
43679;DHT22;29279;50.858;4.392;2022-10-23T10:50:02;19.40;99.90
43679;DHT22;29279;50.858;4.392;2022-10-23T10:55:47;19.70;99.90
43679;DHT22;29279;50.858;4.392;2022-10-23T11:00:35;19.60;99.90
43679;DHT22;29279;50.858;4.392;2022-10-23T11:03:27;19.70;99.90
43679;DHT22;29279;50.858;4.392;2022-10-23T11:05:56;19.70;99.90
43679;DHT22;29279;50.858;4.392;2022-10-23T11:08:38;20.00;99.90
43679;DHT22;29279;50.858;4.392;2022-10-23T11:13:43;19.70;99.90
43679;DHT22;29279;50.858;4.392;2022-10-23T11:16:48;19.80;99.90
43679;DHT22;29279;50.858;4.392;2022-10-23T11:30:15;20.40;99.90
43679;DHT22;29279;50.858;4.392;2022-10-23T11:33:04;20.60;99.90
43679;DHT22;29279;50.858;4.392;2022-10-23T11:38:18;20.90;99.90
43679;DHT22;29279;50.858;4.392;2022-10-23T11:40:46;21.10;99.90
43679;DHT22;29279;50.858;4.392;2022-10-23T11:43:24;21.20;99.90
43679;DHT22;29279;50.858;4.392;2022-10-23T11:45:49;21.10;99.90
43679;DHT22;29279;50.858;4.392;2022-10-23T11:48:22;21.30;99.90
43679;DHT22;29279;50.858;4.392;2022-10-23T11:50:59;21.30;99.90
43679;DHT22;29279;50.858;4.392;2022-10-23T11:58:45;21.80;99.90
43679;DHT22;29279;50.858;4.392;2022-10-23T12:01:22;21.90;99.90
43679;DHT22;29279;50.858;4.392;2022-10-23T12:06:31;21.90;99.90
43679;DHT22;29279;50.858;4.392;2022-10-23T12:09:05;21.70;99.90
43679;DHT22;29279;50.858;4.392;2022-10-23T12:11:45;21.60;99.90
43679;DHT22;29279;50.858;4.392;2022-10-23T12:16:54;21.70;99.90
43679;DHT22;29279;50.858;4.392;2022-10-23T12:19:23;21.70;99.90
43679;DHT22;29279;50.858;4.392;2022-10-23T12:22:00;21.60;99.90
43679;DHT22;29279;50.858;4.392;2022-10-23T12:27:51;21.50;99.90
43679;DHT22;29279;50.858;4.392;2022-10-23T12:30:23;21.50;99.90
43679;DHT22;29279;50.858;4.392;2022-10-23T12:36:01;21.50;99.90
43679;DHT22;29279;50.858;4.392;2022-10-23T12:38:29;21.60;99.90
43679;DHT22;29279;50.858;4.392;2022-10-23T12:43:37;22.00;99.90
43679;DHT22;29279;50.858;4.392;2022-10-23T12:48:52;22.40;99.90
43679;DHT22;29279;50.858;4.392;2022-10-23T12:51:44;22.70;99.90
43679;DHT22;29279;50.858;4.392;2022-10-23T12:54:18;22.70;99.90
43679;DHT22;29279;50.858;4.392;2022-10-23T12:56:44;22.90;99.90
43679;DHT22;29279;50.858;4.392;2022-10-23T12:59:22;23.30;99.90
43679;DHT22;29279;50.858;4.392;2022-10-23T13:01:50;23.60;99.90
43679;DHT22;29279;50.858;4.392;2022-10-23T13:04:36;23.40;99.90
43679;DHT22;29279;50.858;4.392;2022-10-23T13:07:03;23.10;99.90
43679;DHT22;29279;50.858;4.392;2022-10-23T13:09:34;23.10;99.90
43679;DHT22;29279;50.858;4.392;2022-10-23T13:12:04;23.00;99.90
43679;DHT22;29279;50.858;4.392;2022-10-23T13:16:59;22.70;99.90
43679;DHT22;29279;50.858;4.392;2022-10-23T13:19:25;22.40;99.90
43679;DHT22;29279;50.858;4.392;2022-10-23T13:21:52;22.30;99.90
43679;DHT22;29279;50.858;4.392;2022-10-23T13:24:19;22.20;99.90
43679;DHT22;29279;50.858;4.392;2022-10-23T13:26:46;22.10;99.90
43679;DHT22;29279;50.858;4.392;2022-10-23T13:29:33;21.90;99.90
43679;DHT22;29279;50.858;4.392;2022-10-23T13:32:20;21.90;99.90
43679;DHT22;29279;50.858;4.392;2022-10-23T13:34:51;21.90;99.90
43679;DHT22;29279;50.858;4.392;2022-10-23T13:37:24;21.70;99.90
43679;DHT22;29279;50.858;4.392;2022-10-23T13:40:20;21.50;99.90
43679;DHT22;29279;50.858;4.392;2022-10-23T13:42:53;21.60;99.90
43679;DHT22;29279;50.858;4.392;2022-10-23T13:45:21;21.70;99.90
43679;DHT22;29279;50.858;4.392;2022-10-23T13:47:48;21.60;99.90
43679;DHT22;29279;50.858;4.392;2022-10-23T13:50:13;21.60;99.90
43679;DHT22;29279;50.858;4.392;2022-10-23T13:52:39;21.70;99.90
43679;DHT22;29279;50.858;4.392;2022-10-23T13:55:25;21.60;99.90
43679;DHT22;29279;50.858;4.392;2022-10-23T13:57:51;21.70;99.90
43679;DHT22;29279;50.858;4.392;2022-10-23T14:00:17;21.70;99.90
43679;DHT22;29279;50.858;4.392;2022-10-23T14:02:43;21.80;99.90
43679;DHT22;29279;50.858;4.392;2022-10-23T14:05:09;21.70;99.90
43679;DHT22;29279;50.858;4.392;2022-10-23T14:07:35;21.70;99.90
43679;DHT22;29279;50.858;4.392;2022-10-23T14:10:00;21.50;99.90
43679;DHT22;29279;50.858;4.392;2022-10-23T14:12:26;21.60;99.90
43679;DHT22;29279;50.858;4.392;2022-10-23T14:14:52;21.40;99.90
43679;DHT22;29279;50.858;4.392;2022-10-23T14:17:21;21.40;99.90
43679;DHT22;29279;50.858;4.392;2022-10-23T14:19:46;21.60;99.90
43679;DHT22;29279;50.858;4.392;2022-10-23T14:22:12;21.60;99.90
43679;DHT22;29279;50.858;4.392;2022-10-23T14:24:38;21.70;99.90
43679;DHT22;29279;50.858;4.392;2022-10-23T14:27:04;21.60;99.90
43679;DHT22;29279;50.858;4.392;2022-10-23T14:29:29;21.60;99.90
43679;DHT22;29279;50.858;4.392;2022-10-23T14:31:55;21.60;99.90
43679;DHT22;29279;50.858;4.392;2022-10-23T14:34:21;21.60;99.90
43679;DHT22;29279;50.858;4.392;2022-10-23T14:36:46;21.60;99.90
43679;DHT22;29279;50.858;4.392;2022-10-23T14:39:12;21.60;99.90
43679;DHT22;29279;50.858;4.392;2022-10-23T14:41:38;21.60;99.90
43679;DHT22;29279;50.858;4.392;2022-10-23T14:44:05;21.50;99.90
43679;DHT22;29279;50.858;4.392;2022-10-23T14:46:30;21.50;99.90
43679;DHT22;29279;50.858;4.392;2022-10-23T14:48:56;21.60;99.90
43679;DHT22;29279;50.858;4.392;2022-10-23T14:51:24;21.70;99.90
43679;DHT22;29279;50.858;4.392;2022-10-23T14:54:02;21.60;99.90
43679;DHT22;29279;50.858;4.392;2022-10-23T14:56:31;21.60;99.90
43679;DHT22;29279;50.858;4.392;2022-10-23T14:58:57;21.60;99.90
43679;DHT22;29279;50.858;4.392;2022-10-23T15:01:32;21.50;99.90
43679;DHT22;29279;50.858;4.392;2022-10-23T15:03:58;21.50;99.90
43679;DHT22;29279;50.858;4.392;2022-10-23T15:06:24;21.40;99.90
43679;DHT22;29279;50.858;4.392;2022-10-23T15:08:53;21.40;99.90
43679;DHT22;29279;50.858;4.392;2022-10-23T15:11:21;21.40;99.90
43679;DHT22;29279;50.858;4.392;2022-10-23T15:13:46;21.30;99.90
43679;DHT22;29279;50.858;4.392;2022-10-23T15:16:12;21.30;99.90
43679;DHT22;29279;50.858;4.392;2022-10-23T15:18:38;21.30;99.90
43679;DHT22;29279;50.858;4.392;2022-10-23T15:21:05;21.30;99.90
43679;DHT22;29279;50.858;4.392;2022-10-23T15:23:33;21.30;99.90
43679;DHT22;29279;50.858;4.392;2022-10-23T15:26:01;21.40;99.90
43679;DHT22;29279;50.858;4.392;2022-10-23T15:28:27;21.30;99.90
43679;DHT22;29279;50.858;4.392;2022-10-23T15:30:53;21.10;99.90
43679;DHT22;29279;50.858;4.392;2022-10-23T15:33:19;21.10;99.90
43679;DHT22;29279;50.858;4.392;2022-10-23T15:35:45;21.10;99.90
43679;DHT22;29279;50.858;4.392;2022-10-23T15:38:10;21.10;99.90
43679;DHT22;29279;50.858;4.392;2022-10-23T15:40:36;21.00;99.90
43679;DHT22;29279;50.858;4.392;2022-10-23T15:43:02;21.10;99.90
43679;DHT22;29279;50.858;4.392;2022-10-23T15:45:29;21.00;99.90
43679;DHT22;29279;50.858;4.392;2022-10-23T15:47:55;21.00;99.90
43679;DHT22;29279;50.858;4.392;2022-10-23T15:50:21;21.10;99.90
43679;DHT22;29279;50.858;4.392;2022-10-23T15:52:47;20.90;99.90
43679;DHT22;29279;50.858;4.392;2022-10-23T15:55:13;20.90;99.90
43679;DHT22;29279;50.858;4.392;2022-10-23T15:57:39;21.00;99.90
43679;DHT22;29279;50.858;4.392;2022-10-23T16:00:08;20.90;99.90
43679;DHT22;29279;50.858;4.392;2022-10-23T16:02:34;20.90;99.90
43679;DHT22;29279;50.858;4.392;2022-10-23T16:05:00;20.90;99.90
43679;DHT22;29279;50.858;4.392;2022-10-23T16:07:26;20.90;99.90
43679;DHT22;29279;50.858;4.392;2022-10-23T16:09:51;20.70;99.90
43679;DHT22;29279;50.858;4.392;2022-10-23T16:12:17;20.60;99.90
43679;DHT22;29279;50.858;4.392;2022-10-23T16:14:43;20.50;99.90
43679;DHT22;29279;50.858;4.392;2022-10-23T16:17:09;20.30;99.90
43679;DHT22;29279;50.858;4.392;2022-10-23T16:19:35;20.50;99.90
43679;DHT22;29279;50.858;4.392;2022-10-23T16:22:01;20.40;99.90
43679;DHT22;29279;50.858;4.392;2022-10-23T16:24:28;20.40;99.90
43679;DHT22;29279;50.858;4.392;2022-10-23T16:26:54;20.40;99.90
43679;DHT22;29279;50.858;4.392;2022-10-23T16:29:23;20.30;99.90
43679;DHT22;29279;50.858;4.392;2022-10-23T16:31:53;20.40;99.90
43679;DHT22;29279;50.858;4.392;2022-10-23T16:34:19;20.30;99.90
43679;DHT22;29279;50.858;4.392;2022-10-23T16:36:45;20.20;99.90
43679;DHT22;29279;50.858;4.392;2022-10-23T16:39:12;20.10;99.90
43679;DHT22;29279;50.858;4.392;2022-10-23T16:41:38;20.10;99.90
43679;DHT22;29279;50.858;4.392;2022-10-23T16:44:04;20.20;99.90
43679;DHT22;29279;50.858;4.392;2022-10-23T16:46:30;20.00;99.90
43679;DHT22;29279;50.858;4.392;2022-10-23T16:48:56;19.90;99.90
43679;DHT22;29279;50.858;4.392;2022-10-23T16:51:24;19.90;99.90
43679;DHT22;29279;50.858;4.392;2022-10-23T16:53:51;20.00;99.90
43679;DHT22;29279;50.858;4.392;2022-10-23T16:56:20;20.00;99.90
43679;DHT22;29279;50.858;4.392;2022-10-23T16:58:46;20.00;99.90
43679;DHT22;29279;50.858;4.392;2022-10-23T17:01:21;20.00;99.90
43679;DHT22;29279;50.858;4.392;2022-10-23T17:03:48;20.00;99.90
43679;DHT22;29279;50.858;4.392;2022-10-23T17:06:16;20.10;99.90
43679;DHT22;29279;50.858;4.392;2022-10-23T17:08:42;20.10;99.90
43679;DHT22;29279;50.858;4.392;2022-10-23T17:11:14;20.00;99.90
43679;DHT22;29279;50.858;4.392;2022-10-23T17:13:43;20.10;99.90
43679;DHT22;29279;50.858;4.392;2022-10-23T17:16:16;20.10;99.90
43679;DHT22;29279;50.858;4.392;2022-10-23T17:18:43;20.10;99.90
43679;DHT22;29279;50.858;4.392;2022-10-23T17:21:10;20.10;99.90
43679;DHT22;29279;50.858;4.392;2022-10-23T17:23:36;20.20;99.90
43679;DHT22;29279;50.858;4.392;2022-10-23T17:26:06;20.20;99.90
43679;DHT22;29279;50.858;4.392;2022-10-23T17:28:32;20.10;99.90
43679;DHT22;29279;50.858;4.392;2022-10-23T17:31:10;20.20;99.90
43679;DHT22;29279;50.858;4.392;2022-10-23T17:33:35;20.30;99.90
43679;DHT22;29279;50.858;4.392;2022-10-23T17:36:01;20.20;99.90
43679;DHT22;29279;50.858;4.392;2022-10-23T17:38:27;20.10;99.90
43679;DHT22;29279;50.858;4.392;2022-10-23T17:40:53;20.10;99.90
43679;DHT22;29279;50.858;4.392;2022-10-23T17:43:18;20.00;99.90
43679;DHT22;29279;50.858;4.392;2022-10-23T17:45:44;20.00;99.90